createdAt,value
2022-11-13T00:02:54.067Z,102133.84
2022-11-13T00:05:41.791Z,102129.19
2022-11-13T00:08:29.043Z,102126.44
2022-11-13T00:11:19.836Z,102122.38
2022-11-13T00:14:07.196Z,102116.38
2022-11-13T00:16:54.467Z,102117.47
2022-11-13T00:19:43.138Z,102121.69
2022-11-13T00:22:30.671Z,102122.47
2022-11-13T00:25:17.807Z,102109.38
2022-11-13T00:28:05.383Z,102112.78
2022-11-13T00:30:52.351Z,102119.09
2022-11-13T00:34:13.958Z,102117.59
2022-11-13T00:36:48.539Z,102108.63
2022-11-13T00:39:36.078Z,102122.56
2022-11-13T00:42:23.136Z,102124.41
2022-11-13T00:45:11.201Z,102125.03
2022-11-13T00:47:58.518Z,102116.66
2022-11-13T00:50:46.973Z,102111.75
2022-11-13T00:53:35.278Z,102116.09
2022-11-13T00:56:22.761Z,102107.47
2022-11-13T00:59:10.264Z,102102.44
2022-11-13T01:01:57.474Z,102101.91
2022-11-13T01:04:45.027Z,102094.06
2022-11-13T01:07:32.693Z,102101.19
2022-11-13T01:10:21.291Z,102095.91
2022-11-13T01:13:09.151Z,102096.09
2022-11-13T01:15:56.080Z,102090.44
2022-11-13T01:18:44.776Z,102088.03
2022-11-13T01:26:27.694Z,102083.00
2022-11-13T01:29:14.804Z,102089.31
2022-11-13T01:32:02.387Z,102079.69
2022-11-13T01:34:49.582Z,102081.53
2022-11-13T01:37:37.069Z,102077.22
2022-11-13T01:40:23.895Z,102079.06
2022-11-13T01:43:26.158Z,102071.94
2022-11-13T01:46:27.918Z,102076.16
2022-11-13T01:49:28.372Z,102071.66
2022-11-13T01:52:21.213Z,102083.84
2022-11-13T01:55:17.103Z,102076.84
2022-11-13T01:58:09.755Z,102072.13
2022-11-13T02:00:58.744Z,102071.38
2022-11-13T02:03:45.944Z,102066.59
2022-11-13T02:06:41.471Z,102064.28
2022-11-13T02:09:34.707Z,102071.38
2022-11-13T02:12:29.529Z,102069.09
2022-11-13T02:15:19.333Z,102067.47
2022-11-13T02:18:09.150Z,102064.69
2022-11-13T02:21:11.125Z,102061.19
2022-11-13T02:24:15.029Z,102056.97
2022-11-13T02:27:06.986Z,102061.13
2022-11-13T02:29:54.737Z,102061.28
2022-11-13T02:32:45.248Z,102060.44
2022-11-13T02:35:38.597Z,102065.34
2022-11-13T02:38:26.573Z,102063.84
2022-11-13T02:41:15.593Z,102065.53
2022-11-13T02:44:02.533Z,102059.72
2022-11-13T02:46:49.894Z,102048.88
2022-11-13T02:49:37.055Z,102060.38
2022-11-13T02:52:24.800Z,102048.97
2022-11-13T02:55:12.127Z,102053.00
2022-11-13T02:58:01.064Z,102044.19
2022-11-13T03:00:48.484Z,102052.84
2022-11-13T03:06:43.190Z,102057.03
2022-11-13T03:09:30.659Z,102059.41
2022-11-13T03:12:17.700Z,102060.44
2022-11-13T03:15:08.964Z,102058.16
2022-11-13T03:17:56.417Z,102051.69
2022-11-13T03:20:45.533Z,102047.47
2022-11-13T03:23:32.533Z,102057.94
2022-11-13T03:26:20.035Z,102063.63
2022-11-13T03:29:06.912Z,102067.56
2022-11-13T03:31:55.669Z,102066.25
2022-11-13T03:34:43.547Z,102055.53
2022-11-13T03:37:31.397Z,102052.50
2022-11-13T03:40:19.019Z,102059.94
2022-11-13T03:43:06.010Z,102061.72
2022-11-13T03:45:53.315Z,102075.22
2022-11-13T03:48:42.443Z,102067.38
2022-11-13T03:51:29.695Z,102075.41
2022-11-13T03:54:17.153Z,102068.56
2022-11-13T03:57:04.501Z,102065.41
2022-11-13T04:04:43.194Z,102069.22
2022-11-13T04:07:30.567Z,102070.25
2022-11-13T04:10:17.894Z,102068.25
2022-11-13T04:13:05.337Z,102068.34
2022-11-13T04:15:52.121Z,102060.56
2022-11-13T04:18:39.721Z,102059.19
2022-11-13T04:21:28.534Z,102065.84
2022-11-13T04:24:15.916Z,102067.28
2022-11-13T04:27:02.807Z,102066.47
2022-11-13T04:29:50.316Z,102069.53
2022-11-13T04:32:37.305Z,102067.88
2022-11-13T04:35:24.595Z,102069.03
2022-11-13T04:38:13.453Z,102074.34
2022-11-13T04:41:18.472Z,102075.50
2022-11-13T04:44:05.946Z,102059.94
2022-11-13T04:46:53.122Z,102066.09
2022-11-13T04:49:40.100Z,102064.03
2022-11-13T04:52:28.622Z,102066.03
2022-11-13T04:55:16.848Z,102072.53
2022-11-13T04:58:04.124Z,102068.56
2022-11-13T05:00:51.380Z,102066.38
2022-11-13T05:03:39.270Z,102075.00
2022-11-13T05:06:26.407Z,102075.16
2022-11-13T05:09:14.150Z,102078.13
2022-11-13T05:12:03.041Z,102079.72
2022-11-13T05:14:50.674Z,102082.06
2022-11-13T05:17:38.019Z,102075.88
2022-11-13T05:20:25.446Z,102082.88
2022-11-13T05:23:12.899Z,102088.34
2022-11-13T05:26:04.849Z,102092.75
2022-11-13T05:28:53.893Z,102088.84
2022-11-13T05:31:41.606Z,102088.34
2022-11-13T05:34:28.784Z,102085.53
2022-11-13T05:37:16.700Z,102089.84
2022-11-13T05:40:03.635Z,102093.19
2022-11-13T05:42:51.072Z,102099.72
2022-11-13T05:45:39.267Z,102100.69
2022-11-13T05:48:27.081Z,102100.78
2022-11-13T05:51:19.087Z,102105.84
2022-11-13T05:54:07.226Z,102097.00
2022-11-13T05:56:54.249Z,102100.44
2022-11-13T05:59:41.741Z,102102.84
2022-11-13T06:02:30.412Z,102102.88
2022-11-13T06:05:17.873Z,102103.56
2022-11-13T06:08:04.896Z,102107.66
2022-11-13T06:10:52.357Z,102105.22
2022-11-13T06:13:40.363Z,102104.59
2022-11-13T06:21:22.117Z,102101.63
2022-11-13T06:24:13.126Z,102103.28
2022-11-13T06:27:00.251Z,102112.59
2022-11-13T06:29:47.951Z,102109.09
2022-11-13T06:32:34.751Z,102107.88
2022-11-13T06:35:22.303Z,102109.91
2022-11-13T06:38:10.726Z,102106.44
2022-11-13T06:40:58.572Z,102110.47
2022-11-13T06:43:47.464Z,102103.81
2022-11-13T06:46:34.869Z,102111.41
2022-11-13T06:49:21.883Z,102116.09
2022-11-13T06:52:09.362Z,102114.66
2022-11-13T06:54:57.644Z,102120.81
2022-11-13T06:57:45.312Z,102116.94
2022-11-13T07:00:36.682Z,102115.78
2022-11-13T07:03:28.023Z,102115.25
2022-11-13T07:06:18.335Z,102112.34
2022-11-13T07:09:05.530Z,102110.00
2022-11-13T07:11:54.008Z,102104.47
2022-11-13T07:19:32.461Z,102111.16
2022-11-13T07:22:19.951Z,102111.22
2022-11-13T07:25:08.266Z,102115.69
2022-11-13T07:27:57.393Z,102111.16
2022-11-13T07:30:44.852Z,102113.91
2022-11-13T07:33:32.433Z,102113.63
2022-11-13T07:36:20.047Z,102109.38
2022-11-13T07:39:07.580Z,102108.28
2022-11-13T07:41:54.397Z,102108.19
2022-11-13T07:44:58.627Z,102116.03
2022-11-13T07:47:45.719Z,102106.25
2022-11-13T07:50:38.949Z,102105.72
2022-11-13T07:53:26.249Z,102106.75
2022-11-13T07:56:16.578Z,102114.56
2022-11-13T07:59:06.428Z,102107.59
2022-11-13T08:01:55.012Z,102103.13
2022-11-13T08:04:42.131Z,102110.00
2022-11-13T08:07:29.814Z,102107.03
2022-11-13T08:10:18.508Z,102104.19
2022-11-13T08:13:10.755Z,102108.38
2022-11-13T08:16:01.249Z,102110.88
2022-11-13T08:18:49.921Z,102113.16
2022-11-13T08:21:37.235Z,102114.19
2022-11-13T08:24:24.529Z,102116.47
2022-11-13T08:27:11.351Z,102114.00
2022-11-13T08:29:58.808Z,102112.38
2022-11-13T08:32:46.016Z,102113.16
2022-11-13T08:35:34.869Z,102116.44
2022-11-13T08:38:22.342Z,102108.84
2022-11-13T08:41:10.186Z,102113.41
2022-11-13T08:48:48.587Z,102113.50
2022-11-13T08:51:36.762Z,102117.56
2022-11-13T08:54:25.050Z,102119.28
2022-11-13T08:57:12.106Z,102123.34
2022-11-13T08:59:59.447Z,102117.44
2022-11-13T09:02:46.743Z,102121.09
2022-11-13T09:05:33.949Z,102112.44
2022-11-13T09:08:22.419Z,102105.50
2022-11-13T09:11:12.792Z,102107.88
2022-11-13T09:14:00.097Z,102106.50
2022-11-13T09:16:47.510Z,102102.56
2022-11-13T09:19:35.266Z,102095.84
2022-11-13T09:22:23.071Z,102102.47
2022-11-13T09:25:12.340Z,102092.78
2022-11-13T09:28:02.646Z,102092.88
2022-11-13T09:30:49.668Z,102092.44
2022-11-13T09:33:37.689Z,102090.78
2022-11-13T09:36:24.644Z,102099.91
2022-11-13T09:39:12.265Z,102094.19
2022-11-13T09:46:56.455Z,102089.47
2022-11-13T09:54:37.147Z,102071.84
2022-11-13T09:57:34.504Z,102079.63
2022-11-13T10:00:23.586Z,102069.03
2022-11-13T10:03:54.667Z,102075.28
2022-11-13T10:07:01.051Z,102074.75
2022-11-13T10:14:47.644Z,102064.94
2022-11-13T10:17:40.580Z,102062.75
2022-11-13T10:20:35.920Z,102052.09
2022-11-13T10:23:30.842Z,102058.84
2022-11-13T10:26:21.509Z,102067.84
2022-11-13T10:29:14.079Z,102068.19
2022-11-13T10:32:17.488Z,102057.75
2022-11-13T10:35:29.343Z,102055.44
2022-11-13T10:38:31.517Z,102058.47
2022-11-13T10:41:21.613Z,102044.16
2022-11-13T10:48:59.250Z,102057.44
2022-11-13T10:51:55.353Z,102053.00
2022-11-13T10:54:43.668Z,102049.91
2022-11-13T10:57:34.711Z,102040.09
2022-11-13T11:00:34.272Z,102047.84
2022-11-13T11:03:24.301Z,102021.94
2022-11-13T11:06:11.880Z,102035.72
2022-11-13T11:09:09.281Z,102043.03
2022-11-13T11:12:19.120Z,102039.16
2022-11-13T11:15:22.271Z,102045.00
2022-11-13T11:18:25.523Z,102039.78
2022-11-13T11:21:20.594Z,102033.38
2022-11-13T11:24:15.482Z,102029.19
2022-11-13T11:27:14.468Z,102040.00
2022-11-13T11:30:06.863Z,102038.66
2022-11-13T11:33:06.187Z,102051.22
2022-11-13T11:36:03.519Z,102049.44
2022-11-13T11:39:01.409Z,102046.28
2022-11-13T11:42:01.379Z,102027.13
2022-11-13T11:45:11.176Z,102036.16
2022-11-13T11:48:01.891Z,102024.34
2022-11-13T11:51:02.468Z,102018.16
2022-11-13T11:54:20.701Z,102028.00
2022-11-13T11:57:37.458Z,102019.44
2022-11-13T12:00:29.020Z,102021.44
2022-11-13T12:03:59.820Z,102011.44
2022-11-13T12:07:01.596Z,102010.13
2022-11-13T12:10:04.102Z,102016.97
2022-11-13T12:13:10.471Z,102008.72
2022-11-13T12:16:09.662Z,102006.16
2022-11-13T12:19:05.570Z,102012.34
2022-11-13T12:22:07.166Z,101996.59
2022-11-13T12:25:18.917Z,102007.78
2022-11-13T12:28:19.697Z,102004.09
2022-11-13T12:31:21.868Z,102005.03
2022-11-13T12:34:25.907Z,102003.41
2022-11-13T12:37:17.578Z,101982.81
2022-11-13T12:40:17.073Z,102002.38
2022-11-13T12:43:39.733Z,101993.75
2022-11-13T12:46:38.785Z,101999.84
2022-11-13T12:49:33.614Z,101995.38
2022-11-13T12:52:24.555Z,101998.25
2022-11-13T12:55:29.897Z,101994.59
2022-11-13T12:58:26.086Z,101985.97
2022-11-13T13:01:21.456Z,101981.72
2022-11-13T13:04:44.155Z,101991.19
2022-11-13T13:12:39.984Z,101991.34
2022-11-13T13:15:36.333Z,101985.22
2022-11-13T13:18:30.978Z,101985.91
2022-11-13T13:21:22.075Z,101979.13
2022-11-13T13:29:17.723Z,101974.00
2022-11-13T13:32:20.604Z,101974.72
2022-11-13T13:36:46.689Z,101979.88
2022-11-13T13:39:52.506Z,101973.88
2022-11-13T13:43:00.883Z,101976.47
2022-11-13T13:46:03.095Z,101971.16
2022-11-13T13:48:56.192Z,101968.63
2022-11-13T13:53:22.689Z,101972.00
2022-11-13T14:35:03.135Z,101944.75
2022-11-13T14:37:53.066Z,101932.81
2022-11-13T14:40:40.770Z,101953.41
2022-11-13T14:43:32.120Z,101939.59
2022-11-13T14:46:30.933Z,101947.31
2022-11-13T14:49:30.111Z,101948.19
2022-11-13T14:52:29.622Z,101949.94
2022-11-13T14:55:26.227Z,101950.81
2022-11-13T14:58:15.388Z,101943.94
2022-11-13T15:01:17.014Z,101936.88
2022-11-13T15:04:05.204Z,101933.50
2022-11-13T15:06:55.853Z,101928.31
2022-11-13T15:09:44.824Z,101933.44
2022-11-13T15:12:31.985Z,101937.91
2022-11-13T15:15:22.052Z,101927.41
2022-11-13T15:18:17.392Z,101924.88
2022-11-13T15:21:05.338Z,101917.88
2022-11-13T15:23:52.257Z,101920.44
2022-11-13T15:26:41.987Z,101918.75
2022-11-13T15:29:29.413Z,101921.41
2022-11-13T15:32:17.530Z,101920.50
2022-11-13T15:35:05.167Z,101915.44
2022-11-13T15:37:52.807Z,101915.31
2022-11-13T15:40:40.517Z,101898.19
2022-11-13T15:43:29.845Z,101906.47
2022-11-13T15:46:20.501Z,101914.38
2022-11-13T15:49:07.921Z,101914.44
2022-11-13T15:51:55.099Z,101916.16
2022-11-13T15:54:42.747Z,101925.78
2022-11-13T15:57:32.000Z,101924.19
2022-11-13T16:00:25.072Z,101920.78
2022-11-13T16:03:12.743Z,101909.44
2022-11-13T16:06:01.113Z,101914.69
2022-11-13T16:08:49.234Z,101920.03
2022-11-13T16:11:37.875Z,101911.19
2022-11-13T16:14:25.553Z,101917.44
2022-11-13T16:17:20.103Z,101913.06
2022-11-13T16:25:33.512Z,101915.16
2022-11-13T16:28:20.895Z,101917.69
2022-11-13T16:31:08.645Z,101926.38
2022-11-13T16:33:57.378Z,101922.16
2022-11-13T16:36:44.895Z,101921.34
2022-11-13T16:39:32.411Z,101921.34
2022-11-13T16:42:20.121Z,101924.78
2022-11-13T16:45:09.051Z,101927.44
2022-11-13T16:47:57.293Z,101926.66
2022-11-13T16:50:45.903Z,101929.16
2022-11-13T16:53:33.222Z,101927.59
2022-11-13T16:56:28.100Z,101931.94
2022-11-13T16:59:15.842Z,101929.38
2022-11-13T17:02:03.220Z,101927.91
2022-11-13T17:04:50.701Z,101927.94
2022-11-13T17:07:39.107Z,101922.66
2022-11-13T17:10:31.736Z,101921.00
2022-11-13T17:13:19.897Z,101933.31
2022-11-13T17:16:07.855Z,101929.88
2022-11-13T17:18:55.904Z,101917.78
2022-11-13T17:21:44.555Z,101926.47
2022-11-13T17:24:33.135Z,101928.19
2022-11-13T17:27:20.367Z,101918.59
2022-11-13T17:30:10.095Z,101921.38
2022-11-13T17:32:57.712Z,101932.00
2022-11-13T17:35:46.455Z,101923.25
2022-11-13T17:38:34.323Z,101910.22
2022-11-13T17:41:23.184Z,101911.00
2022-11-13T17:44:10.936Z,101914.44
2022-11-13T17:47:04.910Z,101907.56
2022-11-13T17:49:52.965Z,101907.75
2022-11-13T17:52:39.963Z,101914.56
2022-11-13T17:55:27.692Z,101912.34
2022-11-13T17:58:16.049Z,101904.53
2022-11-13T18:01:09.718Z,101900.97
2022-11-13T18:03:57.633Z,101890.75
2022-11-13T18:11:36.353Z,101895.03
2022-11-13T18:14:24.947Z,101894.69
2022-11-13T18:17:12.344Z,101897.94
2022-11-13T18:20:02.021Z,101896.50
2022-11-13T18:22:50.325Z,101891.25
2022-11-13T18:25:39.884Z,101890.66
2022-11-13T18:28:27.400Z,101894.91
2022-11-13T18:31:19.874Z,101883.91
2022-11-13T18:34:09.995Z,101882.59
2022-11-13T18:36:58.435Z,101895.00
2022-11-13T18:39:45.590Z,101889.66
2022-11-13T18:42:32.766Z,101893.78
2022-11-13T18:45:20.180Z,101897.56
2022-11-13T18:48:08.915Z,101883.50
2022-11-13T18:50:57.218Z,101887.84
2022-11-13T18:53:46.088Z,101883.16
2022-11-13T18:56:34.296Z,101879.19
2022-11-13T18:59:21.293Z,101884.50
2022-11-13T19:02:10.274Z,101882.84
2022-11-13T19:04:58.838Z,101885.34
2022-11-13T19:07:46.182Z,101894.28
2022-11-13T19:10:35.300Z,101894.91
2022-11-13T19:13:22.967Z,101893.31
2022-11-13T19:16:13.002Z,101904.41
2022-11-13T19:19:03.305Z,101900.75
2022-11-13T19:21:52.300Z,101908.63
2022-11-13T19:24:39.757Z,101900.78
2022-11-13T19:27:27.278Z,101905.16
2022-11-13T19:30:14.866Z,101901.53
2022-11-13T19:33:01.719Z,101905.91
2022-11-13T19:35:49.631Z,101900.97
2022-11-13T19:38:39.298Z,101899.13
2022-11-13T19:41:29.650Z,101900.94
2022-11-13T19:44:16.377Z,101899.06
2022-11-13T19:47:03.945Z,101899.91
2022-11-13T19:54:43.095Z,101909.59
2022-11-13T19:59:14.124Z,101916.47
2022-11-13T20:02:01.847Z,101906.97
2022-11-13T20:04:49.157Z,101908.72
2022-11-13T20:07:37.285Z,101907.94
2022-11-13T20:15:17.004Z,101921.00
2022-11-13T20:18:04.976Z,101919.19
2022-11-13T20:20:54.845Z,101908.66
2022-11-13T20:23:42.687Z,101905.13
2022-11-13T20:26:30.037Z,101902.50
2022-11-13T20:29:17.225Z,101913.94
2022-11-13T20:32:06.276Z,101909.56
2022-11-13T20:34:53.286Z,101911.50
2022-11-13T20:37:41.100Z,101908.81
2022-11-13T20:45:22.761Z,101905.38
2022-11-13T20:48:11.792Z,101908.75
2022-11-13T20:51:07.554Z,101903.66
2022-11-13T20:53:55.853Z,101908.00
2022-11-13T20:56:43.135Z,101904.50
2022-11-13T20:59:30.197Z,101896.91
2022-11-13T21:02:17.729Z,101883.91
2022-11-13T21:05:07.532Z,101903.56
2022-11-13T21:07:55.104Z,101904.53
2022-11-13T21:10:42.008Z,101908.13
2022-11-13T21:13:29.956Z,101909.88
2022-11-13T21:16:18.620Z,101910.72
2022-11-13T21:19:06.181Z,101902.84
2022-11-13T21:26:44.929Z,101894.25
2022-11-13T21:34:22.745Z,101895.22
2022-11-13T21:37:11.036Z,101895.94
2022-11-13T21:39:58.428Z,101888.19
2022-11-13T21:42:46.522Z,101889.09
2022-11-13T21:45:34.808Z,101889.84
2022-11-13T21:48:22.087Z,101884.66
2022-11-13T21:51:10.524Z,101884.75
2022-11-13T21:58:50.209Z,101883.06
2022-11-13T22:01:38.838Z,101887.38
2022-11-13T22:04:27.855Z,101889.00
2022-11-13T22:07:15.854Z,101883.75
2022-11-13T22:10:08.169Z,101881.09
2022-11-13T22:12:55.763Z,101887.31
2022-11-13T22:15:44.662Z,101891.72
2022-11-13T22:18:31.932Z,101888.25
2022-11-13T22:21:19.615Z,101890.97
2022-11-13T22:24:07.403Z,101883.13
2022-11-13T22:26:54.578Z,101886.56
2022-11-13T22:29:41.655Z,101879.50
2022-11-13T22:32:31.465Z,101883.13
2022-11-13T22:35:18.724Z,101881.38
2022-11-13T22:38:06.270Z,101880.44
2022-11-13T22:40:53.304Z,101879.69
2022-11-13T22:43:42.792Z,101870.88
2022-11-13T22:51:24.830Z,101865.84
2022-11-13T22:55:53.328Z,101867.44
2022-11-13T22:58:40.945Z,101859.72
2022-11-13T23:01:30.306Z,101857.97
2022-11-13T23:04:18.025Z,101858.13
2022-11-13T23:07:06.723Z,101864.13
2022-11-13T23:09:54.483Z,101857.97
2022-11-13T23:12:41.738Z,101852.09
2022-11-13T23:15:28.828Z,101853.69
2022-11-13T23:18:16.091Z,101853.63
2022-11-13T23:21:03.343Z,101850.22
2022-11-13T23:23:52.063Z,101854.59
2022-11-13T23:26:39.541Z,101840.91
2022-11-13T23:29:26.474Z,101845.13
2022-11-13T23:32:13.942Z,101841.56
2022-11-13T23:35:01.306Z,101843.25
2022-11-13T23:37:48.815Z,101839.88
2022-11-13T23:45:29.411Z,101838.19
2022-11-13T23:48:16.306Z,101843.31
2022-11-13T23:51:04.334Z,101833.00
2022-11-13T23:53:51.360Z,101832.72
2022-11-13T23:56:39.200Z,101837.22
